KCEF/CEF METAR and TAF weather

Enter ICAO airport designator
Station Type Date Time Source
KCEF METAR 2019/10/18 10:56 UTC NOAA

KCEF 181056Z 29011KT 10SM BKN035 09/04 A2964 RMK AO2A SLP044 T00940036


Station Type Date Time Source
KCEF Decoded METAR 2019/10/18 10:56 UTC NOAA

Chicopee Falls / Westover Air Force Base, MA, United States (KCEF) 42-12N 072-32W 75M
Oct 18, 2019 - 06:56 AM EDT / 2019.10.18 1056 UTC
Wind: from the WNW (290 degrees) at 13 MPH (11 KT):0
Visibility: 10 mile(s):0
Sky conditions: mostly cloudy
Temperature: 48.9 F (9.4 C)
Dew Point: 38.5 F (3.6 C)
Relative Humidity: 67%
Pressure (altimeter): 29.64 in. Hg (1003 hPa)
ob: KCEF 181056Z 29011KT 10SM BKN035 09/04 A2964 RMK AO2A SLP044 T00940036
cycle: 11

Station Type Date Time Source
KCEF TAF 2019/10/18 10:03 UTC NOAA

TAF TAF KCEF 181000Z 1810/1916 30010G15KT 9999 SCT035 520208 QNH2961INS
TEMPO 1810/1813 29015G25KT 520009
BECMG 1812/1813 31012G18KT 9999 SCT035 520208 QNH2971INS
TEMPO 1813/1822 31020G30KT 520009
BECMG 1821/1822 31009KT 9999 FEW035 QNH2983INS
BECMG 1912/1913 28009KT 9999 FEW200 QNH3004INS TX14/1818Z TN01/1910Z

Example: see airport list